Time;durP1;ratioP1;P1;durP2;ratioP2;P2;SDS_P1;SDS_P2;PMS_P1;PMS_P2;Temp;Humidity;BMP_temperature;BMP_pressure;BME280_temperature;BME280_humidity;BME280_pressure;Samples;Min_cycle;Max_cycle;Signal;HPM_P1;HPM_P2
2021/12/04 00:00:23;;;;;;;1.70;1.35;;;7.70;59.60;;;;;;6116398;23;20006;-53
2021/12/04 00:02:50;;;;;;;1.90;1.65;;;7.70;59.60;;;;;;6113752;23;20002;-55
2021/12/04 00:05:18;;;;;;;2.17;1.58;;;7.70;59.60;;;;;;6115017;23;20024;-54
2021/12/04 00:07:44;;;;;;;3.15;1.85;;;7.70;59.60;;;;;;6113930;23;20006;-53
2021/12/04 00:10:17;;;;;;;2.50;1.73;;;7.70;59.60;;;;;;6117329;23;20488;-55
2021/12/04 00:12:44;;;;;;;2.60;1.47;;;7.70;59.70;;;;;;6116830;23;20010;-55
2021/12/04 00:15:10;;;;;;;2.20;1.55;;;7.70;59.60;;;;;;6111468;23;20012;-52
2021/12/04 00:17:37;;;;;;;1.88;1.60;;;7.70;59.60;;;;;;6115647;23;20006;-55
2021/12/04 00:20:04;;;;;;;1.58;1.30;;;7.70;59.60;;;;;;6116799;23;20029;-53
2021/12/04 00:22:31;;;;;;;3.40;1.95;;;7.80;59.60;;;;;;6113754;23;20389;-51
2021/12/04 00:24:57;;;;;;;2.15;1.80;;;7.80;59.60;;;;;;6112447;23;19998;-54
2021/12/04 00:27:23;;;;;;;3.42;2.05;;;7.80;59.60;;;;;;6115544;23;20013;-54
2021/12/04 00:29:49;;;;;;;3.22;2.33;;;7.80;59.60;;;;;;6116570;23;20002;-53
2021/12/04 00:32:29;;;;;;;4.20;2.20;;;7.80;59.60;;;;;;6115719;23;20005;-53
2021/12/04 00:35:08;;;;;;;4.25;2.53;;;7.80;59.60;;;;;;6124825;23;20009;-50
2021/12/04 00:51:15;;;;;;;5.25;2.92;;;7.90;59.30;;;;;;6122104;23;20006;-55
2021/12/04 00:53:42;;;;;;;3.42;2.47;;;7.80;59.30;;;;;;6113750;23;20013;-52
2021/12/04 00:56:08;;;;;;;5.00;2.72;;;7.80;59.30;;;;;;6113571;23;20450;-53
2021/12/04 00:58:35;;;;;;;3.38;2.28;;;7.80;59.40;;;;;;6116268;23;20335;-56
2021/12/04 01:01:01;;;;;;;4.93;2.33;;;7.80;59.40;;;;;;6115553;23;20017;-55
2021/12/04 01:03:27;;;;;;;5.68;2.88;;;7.80;59.40;;;;;;6112781;23;20359;-52
2021/12/04 01:05:54;;;;;;;3.58;2.15;;;7.80;59.90;;;;;;6112811;23;20005;-52
2021/12/04 01:08:20;;;;;;;3.33;2.42;;;7.80;59.50;;;;;;6114205;23;20006;-53
2021/12/04 01:10:46;;;;;;;3.70;2.67;;;7.80;59.50;;;;;;6115400;23;20017;-54
2021/12/04 01:13:12;;;;;;;3.25;2.20;;;7.80;59.50;;;;;;6112548;23;20399;-52
2021/12/04 01:15:44;;;;;;;2.65;2.00;;;7.80;59.50;;;;;;6113819;23;20009;-54
2021/12/04 01:18:11;;;;;;;4.07;2.03;;;7.80;59.50;;;;;;6115321;23;20287;-54
2021/12/04 01:20:39;;;;;;;3.45;2.20;;;7.80;59.60;;;;;;6116043;23;20002;-53
2021/12/04 01:23:06;;;;;;;3.80;2.17;;;7.80;60.00;;;;;;6113829;23;19998;-55
2021/12/04 01:25:35;;;;;;;3.63;2.05;;;7.80;59.60;;;;;;6114956;23;20006;-53
2021/12/04 01:28:04;;;;;;;3.05;2.05;;;7.80;59.60;;;;;;6114383;23;20051;-53
2021/12/04 01:30:31;;;;;;;4.38;2.03;;;7.80;59.50;;;;;;6115144;23;20014;-55
2021/12/04 01:32:57;;;;;;;4.32;1.80;;;7.80;59.50;;;;;;6115279;23;20012;-54
2021/12/04 01:35:23;;;;;;;1.83;1.70;;;7.80;59.50;;;;;;6137280;23;20010;-54
2021/12/04 01:37:49;;;;;;;2.70;1.80;;;7.80;59.50;;;;;;6114938;23;20059;-53
2021/12/04 01:40:17;;;;;;;2.15;1.70;;;7.80;59.50;;;;;;6116337;23;20002;-54
2021/12/04 01:42:44;;;;;;;3.05;1.95;;;7.90;59.60;;;;;;6116176;23;20006;-53
2021/12/04 01:45:11;;;;;;;3.03;2.03;;;7.80;59.50;;;;;;6112429;23;20400;-53
2021/12/04 01:47:38;;;;;;;2.97;1.80;;;7.80;59.50;;;;;;6113966;23;20006;-50
2021/12/04 01:50:06;;;;;;;3.53;1.92;;;7.90;59.60;;;;;;6113545;23;20414;-52
2021/12/04 01:52:33;;;;;;;3.28;1.95;;;7.80;59.60;;;;;;6113326;23;19998;-55
2021/12/04 01:54:59;;;;;;;2.08;1.60;;;7.90;59.60;;;;;;6114816;23;20002;-54
2021/12/04 01:57:26;;;;;;;2.05;1.70;;;7.90;59.60;;;;;;6115897;23;20009;-53
2021/12/04 01:59:53;;;;;;;2.03;1.63;;;7.90;59.60;;;;;;6114399;23;20396;-54
2021/12/04 02:02:20;;;;;;;2.10;1.67;;;7.90;59.60;;;;;;6115381;23;20009;-54
2021/12/04 02:04:46;;;;;;;4.30;1.92;;;7.90;59.60;;;;;;6115566;23;20567;-53
2021/12/04 02:07:15;;;;;;;3.42;1.63;;;7.90;59.60;;;;;;6111047;23;20423;-52
2021/12/04 02:09:41;;;;;;;2.88;1.75;;;7.90;59.70;;;;;;6115618;23;20010;-48
2021/12/04 02:12:08;;;;;;;5.03;1.75;;;7.90;59.60;;;;;;6115688;23;20470;-56
2021/12/04 02:14:39;;;;;;;2.72;1.60;;;7.90;59.60;;;;;;6088374;23;20010;-52
2021/12/04 02:17:06;;;;;;;1.63;1.23;;;7.90;59.60;;;;;;6115202;23;20363;-55
2021/12/04 02:19:32;;;;;;;3.42;1.38;;;7.90;59.60;;;;;;6115693;23;20002;-52
2021/12/04 02:21:59;;;;;;;2.00;1.58;;;7.90;59.60;;;;;;6113994;23;20010;-54
2021/12/04 02:24:25;;;;;;;1.90;1.30;;;7.90;59.60;;;;;;6113966;23;20377;-53
2021/12/04 02:26:52;;;;;;;2.50;1.48;;;8.00;59.60;;;;;;6115121;23;20010;-51
2021/12/04 02:29:19;;;;;;;2.45;1.50;;;7.90;59.60;;;;;;6115430;23;20002;-53
2021/12/04 02:31:55;;;;;;;2.03;1.38;;;7.90;59.60;;;;;;6114763;23;20353;-50
2021/12/04 02:34:27;;;;;;;1.48;1.38;;;7.90;59.60;;;;;;6112570;23;20014;-53
2021/12/04 02:36:54;;;;;;;2.40;1.50;;;7.90;59.60;;;;;;6111602;23;20006;-53
2021/12/04 02:39:27;;;;;;;2.30;1.55;;;7.90;59.60;;;;;;6112351;23;20002;-54
2021/12/04 02:41:54;;;;;;;1.90;1.42;;;8.00;59.60;;;;;;6114413;23;20005;-53
2021/12/04 02:44:21;;;;;;;1.40;1.27;;;8.00;59.60;;;;;;6112952;23;20423;-53
2021/12/04 02:46:47;;;;;;;1.80;1.33;;;7.90;59.60;;;;;;6112802;23;20005;-53
2021/12/04 02:49:15;;;;;;;1.60;1.45;;;8.00;59.60;;;;;;6114100;23;20012;-53
2021/12/04 02:51:41;;;;;;;1.67;1.40;;;7.90;59.60;;;;;;6113103;23;20343;-54
2021/12/04 02:54:13;;;;;;;3.05;1.40;;;8.00;59.60;;;;;;6114849;23;20005;-53
2021/12/04 02:56:44;;;;;;;2.83;1.40;;;8.00;59.70;;;;;;6125512;23;20001;-54
2021/12/04 02:59:11;;;;;;;1.33;1.20;;;8.00;59.70;;;;;;6123097;23;19998;-52
2021/12/04 03:01:41;;;;;;;2.80;1.58;;;8.00;59.70;;;;;;6115276;23;20017;-54
2021/12/04 03:04:09;;;;;;;2.03;1.10;;;7.90;59.60;;;;;;6115274;23;20009;-54
2021/12/04 03:06:42;;;;;;;2.03;1.60;;;7.90;59.60;;;;;;6114269;23;20006;-54
2021/12/04 03:09:08;;;;;;;1.95;1.40;;;7.90;59.60;;;;;;6115357;23;20005;-54
2021/12/04 03:11:35;;;;;;;2.15;1.40;;;7.90;59.60;;;;;;6117072;23;19999;-53
2021/12/04 03:14:02;;;;;;;1.48;1.20;;;7.90;59.60;;;;;;6115528;23;20009;-54
2021/12/04 03:16:28;;;;;;;2.53;1.50;;;7.90;59.60;;;;;;6112364;23;20074;-55
2021/12/04 03:18:54;;;;;;;1.30;1.20;;;7.90;59.60;;;;;;6114301;23;20025;-53
2021/12/04 03:21:21;;;;;;;1.58;1.48;;;8.00;59.70;;;;;;6116039;23;20804;-53
2021/12/04 03:24:00;;;;;;;1.67;1.33;;;7.90;59.70;;;;;;6115065;23;19998;-53
2021/12/04 03:26:26;;;;;;;1.70;1.42;;;7.90;59.70;;;;;;6114632;23;20002;-53
2021/12/04 03:28:54;;;;;;;2.67;1.20;;;8.00;59.80;;;;;;6116126;23;19994;-56
2021/12/04 03:31:39;;;;;;;2.03;1.23;;;7.90;59.80;;;;;;6115643;23;20408;-54
2021/12/04 03:42:36;;;;;;;2.10;1.50;;;8.00;59.80;;;;;;6126379;23;20006;-56
2021/12/04 03:45:05;;;;;;;1.45;1.35;;;8.00;59.80;;;;;;6114911;23;20005;-55
2021/12/04 03:47:31;;;;;;;2.92;1.60;;;8.00;59.80;;;;;;6113717;23;20419;-54
2021/12/04 03:49:57;;;;;;;1.73;1.63;;;7.90;59.80;;;;;;6115456;23;20006;-55
2021/12/04 03:52:24;;;;;;;2.13;1.58;;;7.90;59.80;;;;;;6115451;23;20013;-55
2021/12/04 03:54:50;;;;;;;1.83;1.65;;;7.90;59.80;;;;;;6115471;23;20009;-55
2021/12/04 03:57:16;;;;;;;3.00;1.83;;;7.90;59.80;;;;;;6116209;23;20006;-53
2021/12/04 03:59:48;;;;;;;1.98;1.77;;;7.90;59.80;;;;;;6115401;23;20013;-53
2021/12/04 04:02:17;;;;;;;3.72;2.00;;;8.00;59.90;;;;;;6114954;23;20265;-54
2021/12/04 04:04:44;;;;;;;2.63;1.70;;;7.90;59.80;;;;;;6115195;23;20002;-54
2021/12/04 04:07:11;;;;;;;2.28;1.92;;;7.90;59.80;;;;;;6112294;23;20022;-54
2021/12/04 04:09:38;;;;;;;2.90;1.67;;;7.90;59.90;;;;;;6116464;23;20025;-53
2021/12/04 04:12:04;;;;;;;3.63;1.95;;;7.90;59.90;;;;;;6113891;23;20435;-54
2021/12/04 04:14:31;;;;;;;2.63;2.03;;;8.00;60.00;;;;;;6114788;23;20005;-54
2021/12/04 04:16:58;;;;;;;2.15;1.90;;;8.00;60.00;;;;;;6115646;23;20196;-53
2021/12/04 04:19:25;;;;;;;2.38;1.80;;;7.90;59.90;;;;;;6114756;23;20618;-52
2021/12/04 04:21:58;;;;;;;2.47;2.08;;;7.90;59.90;;;;;;6115185;23;20006;-54
2021/12/04 04:24:27;;;;;;;2.20;2.00;;;7.90;59.90;;;;;;6123376;23;19994;-54
2021/12/04 04:26:54;;;;;;;3.55;2.10;;;7.90;59.90;;;;;;6109414;23;20021;-55
2021/12/04 04:29:21;;;;;;;2.95;2.05;;;7.90;60.00;;;;;;6114258;23;20024;-54
2021/12/04 04:31:48;;;;;;;3.28;1.98;;;8.00;60.10;;;;;;6110447;23;19998;-56
2021/12/04 04:34:23;;;;;;;2.92;1.83;;;7.90;60.00;;;;;;6113590;23;20002;-54
2021/12/04 04:37:04;;;;;;;;;;;7.90;60.00;;;;;;6122177;23;20002;-56
2021/12/04 05:01:31;;;;;;;2.35;1.92;;;7.90;60.10;;;;;;6112649;23;20014;-53
2021/12/04 05:12:22;;;;;;;7.55;4.55;;;7.80;60.00;;;;;;6123631;23;20021;-54
2021/12/04 05:14:54;;;;;;;3.17;1.98;;;7.90;60.10;;;;;;6123746;23;20012;-53
2021/12/04 05:17:30;;;;;;;3.03;1.90;;;7.80;60.10;;;;;;6109335;23;20006;-54
2021/12/04 05:19:57;;;;;;;2.55;2.15;;;7.80;60.10;;;;;;6112383;23;20429;-52
2021/12/04 05:22:24;;;;;;;1.98;1.77;;;7.80;60.10;;;;;;6111625;23;20010;-55
2021/12/04 05:24:50;;;;;;;3.88;2.30;;;7.80;60.10;;;;;;6113534;23;20001;-53
2021/12/04 05:27:16;;;;;;;2.45;1.80;;;7.80;60.20;;;;;;6111408;23;20498;-53
2021/12/04 05:29:43;;;;;;;3.70;2.08;;;7.80;60.20;;;;;;6109783;23;20013;-51
2021/12/04 05:32:11;;;;;;;18.45;7.88;;;7.80;60.20;;;;;;6111247;23;20010;-53
2021/12/04 05:34:37;;;;;;;19.77;9.57;;;7.80;60.30;;;;;;6114060;23;19994;-54
2021/12/04 05:37:04;;;;;;;5.95;3.53;;;7.80;60.30;;;;;;6108085;23;20006;-55
2021/12/04 05:39:30;;;;;;;4.32;2.72;;;7.80;60.20;;;;;;6114259;23;20017;-52
2021/12/04 05:41:56;;;;;;;4.40;2.15;;;7.80;60.30;;;;;;6113975;23;20014;-52
2021/12/04 05:44:25;;;;;;;3.25;2.13;;;7.80;60.30;;;;;;6114974;23;20009;-54
2021/12/04 05:46:59;;;;;;;2.60;2.33;;;7.80;60.20;;;;;;6114372;23;20439;-56
2021/12/04 05:56:51;;;;;;;2.20;1.83;;;7.80;60.20;;;;;;6114162;23;20504;-51
2021/12/04 05:59:17;;;;;;;2.08;1.73;;;7.80;60.10;;;;;;6115118;23;20434;-52
2021/12/04 06:01:44;;;;;;;2.55;1.90;;;7.80;60.20;;;;;;6112410;23;20013;-56
2021/12/04 06:04:10;;;;;;;2.85;1.88;;;7.80;60.20;;;;;;6114513;23;20002;-53
2021/12/04 06:06:36;;;;;;;4.40;1.95;;;7.70;60.20;;;;;;6114474;23;20014;-53
2021/12/04 06:09:04;;;;;;;2.45;1.90;;;7.70;60.20;;;;;;6116012;23;20308;-52
2021/12/04 06:11:31;;;;;;;2.13;1.70;;;7.70;60.20;;;;;;6114270;23;20224;-51
2021/12/04 06:13:58;;;;;;;24.27;9.52;;;7.70;60.20;;;;;;6111615;23;20017;-54
2021/12/04 06:16:24;;;;;;;9.85;4.70;;;7.70;60.30;;;;;;6134713;23;20458;-53
2021/12/04 06:18:52;;;;;;;3.28;2.45;;;7.70;60.30;;;;;;6115121;23;20327;-54
2021/12/04 06:24:06;;;;;;;3.80;2.03;;;7.70;60.30;;;;;;6125104;23;20002;-54
2021/12/04 06:26:35;;;;;;;3.03;1.83;;;7.70;60.20;;;;;;6115705;23;20017;-54
2021/12/04 06:29:02;;;;;;;2.38;1.60;;;7.70;60.30;;;;;;6115369;23;20005;-53
2021/12/04 06:31:30;;;;;;;2.15;1.58;;;7.70;60.30;;;;;;6114231;23;20011;-53
2021/12/04 06:33:56;;;;;;;1.95;1.73;;;7.70;60.30;;;;;;6113142;23;20173;-52
2021/12/04 06:36:25;;;;;;;1.98;1.77;;;7.70;60.30;;;;;;6104829;23;20131;-54
2021/12/04 06:38:52;;;;;;;21.85;9.68;;;7.70;60.30;;;;;;6113464;23;20002;-54
2021/12/04 06:41:18;;;;;;;14.18;6.97;;;7.60;60.30;;;;;;6115019;23;20013;-53
2021/12/04 06:43:49;;;;;;;5.40;3.45;;;7.60;60.30;;;;;;6116481;23;20005;-52
2021/12/04 06:46:17;;;;;;;2.05;1.70;;;7.70;60.40;;;;;;6115147;23;20006;-54
2021/12/04 06:54:08;;;;;;;1.90;1.63;;;7.60;60.30;;;;;;6124482;23;20018;-52
2021/12/04 06:56:35;;;;;;;4.05;2.20;;;7.60;60.30;;;;;;6115098;23;20020;-54
2021/12/04 06:59:06;;;;;;;2.15;1.52;;;7.60;60.20;;;;;;6116706;23;20406;-54
2021/12/04 07:01:33;;;;;;;1.60;1.50;;;7.60;60.20;;;;;;6122337;23;20391;-52
2021/12/04 07:03:59;;;;;;;2.20;1.67;;;7.50;60.10;;;;;;6116223;23;20055;-54
2021/12/04 07:06:26;;;;;;;1.80;1.70;;;7.50;60.20;;;;;;6113732;23;20449;-55
2021/12/04 07:08:53;;;;;;;1.88;1.52;;;7.50;60.30;;;;;;6116684;23;20006;-53
2021/12/04 07:11:19;;;;;;;1.70;1.60;;;7.50;60.40;;;;;;6113761;23;20292;-54
2021/12/04 07:13:45;;;;;;;2.28;1.75;;;7.40;60.50;;;;;;6112441;23;20002;-52
2021/12/04 07:16:15;;;;;;;4.95;1.75;;;7.50;60.70;;;;;;6116236;23;20438;-51
2021/12/04 07:18:42;;;;;;;3.95;2.00;;;7.40;60.70;;;;;;6114262;23;20021;-53
2021/12/04 07:21:08;;;;;;;2.33;1.67;;;7.40;60.80;;;;;;6113649;23;20228;-55
2021/12/04 07:23:35;;;;;;;2.05;1.73;;;7.40;60.80;;;;;;6114180;23;20002;-54
2021/12/04 07:26:02;;;;;;;1.73;1.60;;;7.40;60.80;;;;;;6115037;23;20009;-53
2021/12/04 07:28:28;;;;;;;5.53;1.80;;;7.40;60.90;;;;;;6115723;23;19998;-55
2021/12/04 07:30:54;;;;;;;1.85;1.40;;;7.40;61.00;;;;;;6115591;23;20427;-54
2021/12/04 07:33:20;;;;;;;1.50;1.33;;;7.40;61.10;;;;;;6113950;23;20010;-54
2021/12/04 07:35:47;;;;;;;2.05;1.45;;;7.40;61.10;;;;;;6113554;23;20025;-53
2021/12/04 07:38:14;;;;;;;2.45;1.40;;;7.40;61.10;;;;;;6114994;23;20014;-54
2021/12/04 07:40:41;;;;;;;1.60;1.40;;;7.40;61.00;;;;;;6115178;23;20044;-51
2021/12/04 07:43:07;;;;;;;2.20;1.33;;;7.40;61.00;;;;;;6111943;23;20347;-54
2021/12/04 07:45:33;;;;;;;1.30;1.20;;;7.40;61.10;;;;;;6104333;23;20244;-56
2021/12/04 07:47:59;;;;;;;2.88;1.35;;;7.50;61.20;;;;;;6106901;23;20005;-55
2021/12/04 07:50:26;;;;;;;2.30;1.30;;;7.40;61.10;;;;;;6115761;23;20009;-53
2021/12/04 07:52:52;;;;;;;1.50;1.20;;;7.40;61.40;;;;;;6113325;23;20364;-54
2021/12/04 07:55:18;;;;;;;1.60;1.50;;;7.40;61.20;;;;;;6115259;23;20002;-51
2021/12/04 07:57:44;;;;;;;2.20;1.80;;;7.50;61.30;;;;;;6108676;23;20010;-52
2021/12/04 08:00:14;;;;;;;1.45;1.35;;;7.50;61.30;;;;;;6113760;23;20021;-53
2021/12/04 08:02:41;;;;;;;2.03;1.50;;;7.50;61.40;;;;;;6112767;23;20018;-54
2021/12/04 08:05:09;;;;;;;1.60;1.48;;;7.50;61.40;;;;;;6134951;23;20288;-53
2021/12/04 08:07:36;;;;;;;3.70;1.40;;;7.50;61.40;;;;;;6114506;23;20018;-53
2021/12/04 08:10:05;;;;;;;1.67;1.50;;;7.50;61.40;;;;;;6115195;23;20006;-55
2021/12/04 08:12:31;;;;;;;2.22;1.52;;;7.60;61.40;;;;;;6113258;23;20319;-52
2021/12/04 08:14:57;;;;;;;1.80;1.55;;;7.60;61.40;;;;;;6113903;23;19998;-54
2021/12/04 08:17:25;;;;;;;1.77;1.50;;;7.60;61.40;;;;;;6112428;23;20438;-54
2021/12/04 08:19:51;;;;;;;1.20;1.10;;;7.70;61.40;;;;;;6113195;23;20340;-53
2021/12/04 08:22:17;;;;;;;1.92;1.67;;;7.70;61.40;;;;;;6112255;23;20009;-53
2021/12/04 08:24:46;;;;;;;1.55;1.40;;;7.70;61.30;;;;;;6114801;23;20431;-54
2021/12/04 08:27:14;;;;;;;1.98;1.27;;;7.70;61.30;;;;;;6107459;23;20002;-54
2021/12/04 08:29:40;;;;;;;2.33;1.60;;;7.70;61.20;;;;;;6113583;23;20009;-54
2021/12/04 08:32:07;;;;;;;2.45;1.60;;;7.80;61.30;;;;;;6114539;23;20064;-54
2021/12/04 08:34:34;;;;;;;1.73;1.50;;;7.80;61.20;;;;;;6113704;23;20021;-53
2021/12/04 08:37:03;;;;;;;2.00;1.50;;;7.80;61.10;;;;;;6113782;23;20016;-51
2021/12/04 08:39:29;;;;;;;2.88;1.58;;;7.80;61.10;;;;;;6113763;23;20119;-52
2021/12/04 08:41:56;;;;;;;1.85;1.50;;;7.80;61.00;;;;;;6114082;23;20470;-52
2021/12/04 08:44:22;;;;;;;1.45;1.20;;;7.90;61.10;;;;;;6112634;23;20040;-54
2021/12/04 08:46:49;;;;;;;2.65;1.45;;;7.90;61.00;;;;;;6111797;23;20017;-54
2021/12/04 08:49:16;;;;;;;1.67;1.38;;;7.90;61.00;;;;;;6113650;23;20411;-53
2021/12/04 08:51:42;;;;;;;2.55;1.52;;;7.90;60.90;;;;;;6111443;23;20022;-55
2021/12/04 08:54:09;;;;;;;2.47;1.45;;;8.00;60.90;;;;;;6114918;23;20013;-54
2021/12/04 08:56:36;;;;;;;35.08;13.98;;;8.00;60.90;;;;;;6114875;23;20438;-53
2021/12/04 08:59:04;;;;;;;40.88;17.75;;;8.00;60.80;;;;;;6113616;23;19998;-53
2021/12/04 09:01:33;;;;;;;11.38;5.68;;;8.10;60.80;;;;;;6135523;23;20348;-55
2021/12/04 09:04:04;;;;;;;4.35;2.28;;;8.10;60.80;;;;;;6111086;23;20017;-50
2021/12/04 09:06:31;;;;;;;2.20;1.70;;;8.10;60.80;;;;;;6111932;23;20025;-52
2021/12/04 09:08:58;;;;;;;3.25;1.70;;;8.10;60.70;;;;;;6122936;23;20017;-55
2021/12/04 09:11:31;;;;;;;1.70;1.50;;;8.20;60.60;;;;;;6112469;23;20017;-54
2021/12/04 09:13:59;;;;;;;1.80;1.58;;;8.20;60.50;;;;;;6121729;23;20466;-55
2021/12/04 09:16:26;;;;;;;2.00;1.38;;;8.20;60.50;;;;;;6112282;23;20009;-54
2021/12/04 09:18:52;;;;;;;1.33;1.20;;;8.20;60.40;;;;;;6110319;23;20021;-52
2021/12/04 09:21:19;;;;;;;1.58;1.35;;;8.20;60.40;;;;;;6112404;23;19998;-54
2021/12/04 09:23:50;;;;;;;2.50;1.17;;;8.20;60.20;;;;;;6110465;23;20640;-53
2021/12/04 09:26:39;;;;;;;1.20;1.10;;;8.20;60.20;;;;;;6113549;23;20017;-51
2021/12/04 09:29:22;;;;;;;1.20;1.10;;;8.30;60.20;;;;;;6121751;23;20020;-55
2021/12/04 09:34:50;;;;;;;1.00;0.90;;;8.30;60.00;;;;;;6111509;23;20013;-52
2021/12/04 09:40:36;;;;;;;1.05;0.95;;;8.30;60.00;;;;;;6121115;23;20006;-54
2021/12/04 10:21:18;;;;;;;1.75;1.30;;;8.60;59.70;;;;;;6124205;23;20621;-54
2021/12/04 10:32:39;;;;;;;;;;;;;;;;;;;;;
2021/12/04 10:35:12;;;;;;;1.80;1.30;;;8.70;59.90;;;;;;6126431;23;20006;-55
2021/12/04 10:38:01;;;;;;;1.60;1.20;;;8.70;59.90;;;;;;6115711;23;19998;-52
2021/12/04 10:40:43;;;;;;;1.30;1.00;;;8.70;59.90;;;;;;6125493;23;20002;-55
2021/12/04 10:43:30;;;;;;;1.27;0.85;;;8.70;59.90;;;;;;6138261;23;20453;-53
2021/12/04 10:46:16;;;;;;;1.30;1.13;;;8.70;59.70;;;;;;6125875;23;20036;-52
2021/12/04 10:49:02;;;;;;;2.25;0.90;;;8.80;59.70;;;;;;6116115;23;20013;-49
2021/12/04 10:51:48;;;;;;;1.38;1.13;;;8.80;59.60;;;;;;6124468;23;20349;-55
2021/12/04 10:54:23;;;;;;;1.55;1.20;;;8.80;59.60;;;;;;6115408;23;20009;-53
2021/12/04 10:57:30;;;;;;;1.38;1.13;;;8.80;59.50;;;;;;6115286;23;20335;-56
2021/12/04 11:00:02;;;;;;;2.55;1.75;;;8.80;59.60;;;;;;6115299;23;20014;-51
2021/12/04 11:02:38;;;;;;;2.60;1.80;;;8.80;59.70;;;;;;6125331;23;20002;-55
2021/12/04 11:05:37;;;;;;;3.17;1.85;;;8.80;59.90;;;;;;6117107;23;20006;-54
2021/12/04 11:22:32;;;;;;;;;;;;;;;;;;;;;
2021/12/04 11:44:23;;;;;;;1.05;0.93;;;9.10;60.00;;;;;;6125711;23;20006;-53
2021/12/04 11:46:56;;;;;;;1.58;1.10;;;9.10;60.10;;;;;;6125463;23;20002;-53
2021/12/04 11:49:26;;;;;;;1.03;0.87;;;9.20;60.10;;;;;;6115696;23;20024;-54
2021/12/04 11:52:04;;;;;;;1.88;1.20;;;9.20;60.00;;;;;;6114731;23;20006;-55
2021/12/04 11:55:00;;;;;;;1.40;1.27;;;9.20;60.00;;;;;;6120463;23;20335;-49
2021/12/04 11:57:32;;;;;;;7.40;3.38;;;9.30;60.00;;;;;;6102087;23;20021;-51
2021/12/04 12:00:26;;;;;;;4.82;2.45;;;9.30;59.90;;;;;;6114758;23;20002;-51
2021/12/04 12:03:07;;;;;;;3.97;2.80;;;9.40;59.90;;;;;;6118406;23;20323;-50
2021/12/04 12:05:45;;;;;;;9.77;5.65;;;9.40;59.80;;;;;;6124716;23;20028;-50
2021/12/04 12:08:33;;;;;;;6.25;3.70;;;9.40;59.70;;;;;;6115218;23;20033;-53
2021/12/04 12:11:04;;;;;;;5.45;3.88;;;9.40;59.40;;;;;;6115187;23;20002;-53
2021/12/04 12:13:38;;;;;;;10.05;3.38;;;9.40;59.40;;;;;;6122688;23;20006;-54
2021/12/04 12:16:07;;;;;;;3.63;3.30;;;9.40;59.40;;;;;;6115285;23;20300;-53
2021/12/04 12:18:53;;;;;;;5.20;4.28;;;9.40;59.30;;;;;;6115171;23;20443;-53
2021/12/04 12:21:31;;;;;;;4.90;3.80;;;9.40;59.30;;;;;;6112839;23;20340;-54
2021/12/04 12:24:32;;;;;;;5.88;4.53;;;9.40;59.20;;;;;;6123167;23;20010;-53
2021/12/04 12:38:28;;;;;;;5.88;4.30;;;9.30;59.00;;;;;;6122115;23;20226;-53
2021/12/04 12:41:19;;;;;;;6.10;4.13;;;9.30;59.10;;;;;;6124808;23;20363;-54
2021/12/04 12:43:48;;;;;;;5.65;4.00;;;9.30;59.10;;;;;;6082749;23;20177;-54
2021/12/04 12:46:14;;;;;;;7.22;4.38;;;9.30;59.10;;;;;;6114761;23;20009;-55
2021/12/04 12:48:47;;;;;;;5.10;4.32;;;9.30;59.10;;;;;;6113147;23;20021;-50
2021/12/04 12:51:14;;;;;;;6.57;4.65;;;9.20;59.10;;;;;;6113538;23;20338;-53
2021/12/04 12:53:46;;;;;;;6.78;4.40;;;9.20;59.10;;;;;;6111228;23;20016;-51
2021/12/04 12:56:15;;;;;;;9.38;6.82;;;9.20;59.10;;;;;;6124974;23;19997;-51
2021/12/04 12:58:45;;;;;;;8.25;5.07;;;9.20;59.30;;;;;;6113213;23;20021;-51
2021/12/04 13:13:26;;;;;;;15.77;8.35;;;9.10;59.30;;;;;;6112755;23;20016;-53
2021/12/04 13:15:57;;;;;;;8.48;5.80;;;9.10;59.30;;;;;;6114616;23;20016;-53
2021/12/04 13:18:25;;;;;;;6.72;4.93;;;9.10;59.40;;;;;;6124848;23;20002;-54
2021/12/04 13:20:58;;;;;;;6.63;5.05;;;9.10;59.40;;;;;;6113961;23;20006;-52
2021/12/04 13:23:25;;;;;;;6.60;4.65;;;9.00;59.50;;;;;;6112019;23;20010;-52
2021/12/04 13:25:58;;;;;;;5.68;3.75;;;9.10;59.60;;;;;;6115353;23;20017;-53
2021/12/04 13:28:28;;;;;;;6.18;5.10;;;9.10;59.70;;;;;;6111362;23;20009;-52
2021/12/04 13:30:55;;;;;;;3.83;3.42;;;9.00;59.70;;;;;;6114949;23;20002;-52
2021/12/04 13:33:22;;;;;;;6.22;3.80;;;9.00;59.80;;;;;;6113985;23;20009;-52
2021/12/04 13:35:48;;;;;;;5.68;3.80;;;9.00;59.90;;;;;;6113879;23;19998;-49
2021/12/04 13:38:16;;;;;;;5.18;3.05;;;9.00;60.10;;;;;;6109217;23;20010;-54
2021/12/04 13:40:45;;;;;;;6.03;4.03;;;9.00;60.30;;;;;;6104655;23;20005;-54
2021/12/04 13:43:13;;;;;;;6.50;4.05;;;8.90;60.40;;;;;;6110098;23;20013;-54
2021/12/04 13:45:41;;;;;;;5.18;4.18;;;9.00;60.80;;;;;;6102374;23;20197;-54
2021/12/04 13:48:08;;;;;;;6.18;4.45;;;9.00;61.00;;;;;;6108052;23;20002;-52
2021/12/04 13:53:25;;;;;;;6.40;4.60;;;9.10;61.60;;;;;;6121596;23;20013;-55
2021/12/04 13:55:58;;;;;;;6.72;4.57;;;9.20;61.70;;;;;;6113554;23;20320;-53
2021/12/04 13:58:25;;;;;;;8.95;5.70;;;9.20;61.70;;;;;;6118007;23;20009;-53
2021/12/04 14:00:51;;;;;;;6.00;4.05;;;9.40;61.50;;;;;;6104418;23;20002;-53
2021/12/04 14:03:24;;;;;;;6.38;3.80;;;9.40;61.20;;;;;;6106779;23;20299;-49
2021/12/04 14:05:51;;;;;;;4.38;3.78;;;9.40;60.80;;;;;;6105190;23;20351;-54
2021/12/04 14:08:18;;;;;;;4.00;3.25;;;9.50;60.60;;;;;;6108665;23;20018;-48
2021/12/04 14:10:46;;;;;;;4.53;3.28;;;9.50;60.20;;;;;;6109786;23;20006;-49
2021/12/04 14:13:16;;;;;;;4.18;3.33;;;9.50;60.00;;;;;;6110067;23;20651;-54
2021/12/04 14:15:47;;;;;;;3.78;2.88;;;9.50;59.80;;;;;;6113924;23;20323;-51
2021/12/04 14:18:17;;;;;;;4.68;3.35;;;9.60;59.80;;;;;;6112776;23;20006;-54
2021/12/04 14:20:47;;;;;;;3.83;3.20;;;9.60;59.80;;;;;;6112318;23;20025;-52
2021/12/04 14:23:13;;;;;;;4.35;3.10;;;9.60;59.80;;;;;;6113148;23;20331;-51
2021/12/04 14:25:45;;;;;;;3.70;2.85;;;9.60;59.70;;;;;;6113913;23;20423;-54
2021/12/04 14:28:18;;;;;;;4.32;3.38;;;9.60;59.70;;;;;;6114585;23;20010;-51
2021/12/04 14:30:47;;;;;;;4.83;3.07;;;9.50;59.60;;;;;;6123548;23;19998;-56
2021/12/04 14:33:19;;;;;;;13.43;7.82;;;9.60;59.70;;;;;;6113450;23;20021;-50
2021/12/04 14:35:47;;;;;;;50.38;28.17;;;9.50;59.70;;;;;;6111685;23;19998;-53
2021/12/04 14:38:16;;;;;;;12.00;8.38;;;9.50;59.80;;;;;;6112693;23;20039;-53
2021/12/04 14:40:51;;;;;;;7.50;6.30;;;9.50;59.80;;;;;;6114321;23;20057;-51
2021/12/04 14:43:22;;;;;;;5.60;4.82;;;9.50;59.80;;;;;;6124135;23;20455;-53
2021/12/04 14:45:51;;;;;;;6.13;5.05;;;9.50;59.90;;;;;;6109724;23;20001;-54
2021/12/04 14:48:23;;;;;;;7.70;4.63;;;9.40;59.90;;;;;;6109955;23;20006;-52
2021/12/04 14:50:55;;;;;;;4.95;4.35;;;9.40;59.90;;;;;;6112378;23;20013;-51
2021/12/04 14:53:22;;;;;;;6.25;5.43;;;9.40;60.00;;;;;;6122439;23;20006;-52
2021/12/04 14:55:49;;;;;;;7.72;4.85;;;9.40;60.00;;;;;;6112328;23;20014;-53
2021/12/04 14:58:22;;;;;;;6.63;4.30;;;9.40;60.10;;;;;;6116617;23;20002;-54
2021/12/04 15:00:49;;;;;;;6.78;4.60;;;9.40;60.20;;;;;;6124772;23;20005;-52
2021/12/04 15:03:28;;;;;;;4.93;4.00;;;9.30;60.20;;;;;;6115077;23;20009;-54
2021/12/04 15:05:58;;;;;;;5.03;3.65;;;9.30;60.30;;;;;;6124675;23;20414;-54
2021/12/04 15:08:29;;;;;;;5.15;3.75;;;9.30;60.30;;;;;;6115604;23;20262;-53
2021/12/04 15:11:14;;;;;;;5.78;4.10;;;9.30;60.40;;;;;;6126149;23;20002;-52
2021/12/04 15:13:51;;;;;;;5.40;4.10;;;9.30;60.50;;;;;;6125006;23;20017;-49
2021/12/04 15:16:24;;;;;;;4.55;3.67;;;9.30;60.50;;;;;;6113760;23;20010;-54
2021/12/04 15:18:51;;;;;;;5.10;3.92;;;9.30;60.50;;;;;;6115165;23;20001;-54
2021/12/04 15:21:18;;;;;;;5.18;3.72;;;9.20;60.60;;;;;;6114019;23;20013;-53
2021/12/04 15:23:52;;;;;;;8.45;5.45;;;9.20;60.50;;;;;;6115216;23;20013;-54
2021/12/04 15:26:20;;;;;;;5.78;4.82;;;9.30;60.70;;;;;;6122728;23;20013;-52
2021/12/04 15:28:53;;;;;;;6.22;4.47;;;9.20;60.70;;;;;;6116652;23;20380;-52
2021/12/04 15:31:23;;;;;;;5.70;4.43;;;9.20;60.80;;;;;;6114809;23;20006;-53
2021/12/04 15:33:53;;;;;;;4.68;3.92;;;9.20;60.90;;;;;;6115311;23;19994;-54
2021/12/04 15:36:31;;;;;;;6.50;4.57;;;9.20;61.00;;;;;;6114477;23;20002;-53
2021/12/04 15:38:59;;;;;;;5.90;4.85;;;9.20;61.10;;;;;;6124083;23;20002;-53
2021/12/04 15:41:44;;;;;;;12.05;5.47;;;9.10;61.00;;;;;;6116103;23;20028;-53
2021/12/04 15:54:29;;;;;;;5.07;2.40;;;9.10;61.70;;;;;;6125522;23;20006;-53
2021/12/04 15:56:56;;;;;;;3.30;1.92;;;9.00;61.70;;;;;;6115988;23;20002;-54
2021/12/04 15:59:26;;;;;;;9.15;4.10;;;9.00;62.00;;;;;;6115135;23;20416;-56
2021/12/04 16:01:57;;;;;;;7.65;4.40;;;9.00;62.20;;;;;;6116180;23;20025;-50
2021/12/04 16:04:30;;;;;;;4.90;3.08;;;9.00;62.50;;;;;;6115602;23;20327;-54
2021/12/04 16:06:59;;;;;;;12.18;4.63;;;9.00;62.70;;;;;;6114546;23;20037;-53
2021/12/04 16:09:40;;;;;;;7.47;4.35;;;8.90;62.90;;;;;;6116733;23;20002;-52
2021/12/04 16:12:12;;;;;;;22.15;4.85;;;8.90;63.20;;;;;;6126671;23;20002;-53
2021/12/04 16:14:41;;;;;;;8.30;4.95;;;8.90;63.20;;;;;;6114324;23;20010;-53
2021/12/04 16:17:09;;;;;;;6.53;3.65;;;8.80;63.20;;;;;;6114777;23;20240;-52
2021/12/04 16:19:37;;;;;;;8.68;4.68;;;8.80;63.30;;;;;;6116288;23;20013;-57
2021/12/04 16:22:08;;;;;;;2.45;2.00;;;8.80;63.50;;;;;;6115145;23;20323;-57